Time;durP1;ratioP1;P1;durP2;ratioP2;P2;SDS_P1;SDS_P2;PMS_P1;PMS_P2;Temp;Humidity;BMP_temperature;BMP_pressure;BME280_temperature;BME280_humidity;BME280_pressure;Samples;Min_cycle;Max_cycle;Signal;HPM_P1;HPM_P2
2022/05/04 00:00:32;;;;;;;9.97;9.07;;;13.60;1.00;;;;;;5095786;28;20237;-54
2022/05/04 00:02:58;;;;;;;10.47;9.50;;;13.60;1.00;;;;;;5108729;28;20223;-54
2022/05/04 00:05:24;;;;;;;12.17;9.10;;;13.60;1.00;;;;;;5111638;28;20178;-53
2022/05/04 00:07:49;;;;;;;13.53;9.70;;;13.60;1.00;;;;;;5100391;28;20185;-54
2022/05/04 00:10:15;;;;;;;9.87;9.00;;;13.60;1.00;;;;;;5097478;28;20269;-54
2022/05/04 00:12:41;;;;;;;9.43;8.57;;;13.50;1.00;;;;;;5109465;28;20269;-53
2022/05/04 00:15:07;;;;;;;9.70;8.80;;;13.40;1.00;;;;;;5101938;28;20186;-55
2022/05/04 00:17:33;;;;;;;9.20;8.40;;;13.30;1.00;;;;;;5105186;28;20475;-54
2022/05/04 00:19:58;;;;;;;9.70;8.27;;;13.20;1.00;;;;;;5107018;28;20534;-53
2022/05/04 00:22:26;;;;;;;9.30;8.50;;;13.30;1.00;;;;;;5109591;28;20353;-54
2022/05/04 00:24:51;;;;;;;9.30;8.40;;;13.20;1.00;;;;;;5108717;28;20634;-54
2022/05/04 00:27:17;;;;;;;9.00;8.17;;;13.20;1.00;;;;;;5105039;28;20447;-54
2022/05/04 00:29:44;;;;;;;9.63;8.57;;;13.10;1.00;;;;;;5102636;28;20635;-53
2022/05/04 00:32:14;;;;;;;9.20;8.40;;;13.10;1.00;;;;;;5109826;28;20266;-53
2022/05/04 00:34:40;;;;;;;8.43;7.63;;;13.00;1.00;;;;;;5106398;28;20443;-55
2022/05/04 00:37:06;;;;;;;8.90;8.00;;;13.00;1.00;;;;;;5107077;28;20447;-54
2022/05/04 00:39:33;;;;;;;8.47;7.57;;;13.00;1.00;;;;;;5104365;28;20190;-53
2022/05/04 00:42:14;;;;;;;11.10;8.20;;;12.90;1.00;;;;;;5111286;28;20570;-53
2022/05/04 00:44:49;;;;;;;9.30;8.40;;;12.90;1.00;;;;;;5107332;28;20472;-52
2022/05/04 00:47:15;;;;;;;8.10;7.50;;;12.90;1.00;;;;;;5098437;28;20443;-54
2022/05/04 00:49:42;;;;;;;10.20;8.27;;;12.80;1.00;;;;;;5095693;28;20488;-55
2022/05/04 00:52:09;;;;;;;9.33;8.43;;;12.80;1.00;;;;;;5110056;28;20448;-53
2022/05/04 00:54:36;;;;;;;12.57;7.90;;;12.60;1.00;;;;;;5102605;28;20448;-59
2022/05/04 00:57:03;;;;;;;8.93;8.13;;;12.50;1.00;;;;;;5107454;28;20507;-58
2022/05/04 00:59:30;;;;;;;9.63;8.73;;;12.70;1.00;;;;;;5108629;28;20458;-58
2022/05/04 01:01:56;;;;;;;10.00;9.00;;;12.70;1.00;;;;;;5110886;28;20535;-58
2022/05/04 01:04:22;;;;;;;8.60;7.80;;;12.70;1.00;;;;;;5101735;28;20445;-57
2022/05/04 01:06:47;;;;;;;9.20;8.33;;;12.60;1.00;;;;;;5102747;28;20493;-58
2022/05/04 01:09:13;;;;;;;10.00;8.87;;;12.60;1.00;;;;;;5091722;28;20183;-58
2022/05/04 01:11:39;;;;;;;10.37;9.27;;;12.50;1.00;;;;;;5109106;28;20193;-57
2022/05/04 01:14:07;;;;;;;9.03;8.23;;;12.60;1.00;;;;;;5108640;28;20197;-58
2022/05/04 01:16:35;;;;;;;10.60;8.90;;;12.50;1.00;;;;;;5109480;28;20190;-57
2022/05/04 01:19:01;;;;;;;10.17;9.27;;;12.50;1.00;;;;;;5099151;28;20541;-58
2022/05/04 01:21:26;;;;;;;10.20;9.20;;;12.40;1.00;;;;;;5101479;28;20522;-58
2022/05/04 01:23:54;;;;;;;10.07;9.07;;;12.30;1.00;;;;;;5094498;28;20455;-58
2022/05/04 01:26:19;;;;;;;10.70;9.70;;;12.20;1.00;;;;;;5105959;28;20662;-59
2022/05/04 01:28:45;;;;;;;10.63;9.40;;;12.20;1.00;;;;;;5090677;28;20449;-57
2022/05/04 01:31:11;;;;;;;9.93;9.00;;;12.20;1.00;;;;;;5105054;28;20527;-57
2022/05/04 01:33:37;;;;;;;11.37;10.20;;;12.10;1.00;;;;;;5105386;28;20454;-56
2022/05/04 01:36:06;;;;;;;11.70;9.90;;;12.20;1.00;;;;;;5094043;28;20486;-57
2022/05/04 01:38:33;;;;;;;11.63;10.37;;;12.20;1.00;;;;;;5102249;28;20601;-57
2022/05/04 01:40:59;;;;;;;13.77;9.17;;;12.20;1.00;;;;;;5095004;28;20512;-57
2022/05/04 01:43:24;;;;;;;10.23;9.33;;;12.10;1.00;;;;;;5100353;28;20471;-57
2022/05/04 01:45:50;;;;;;;11.60;10.50;;;9.80;1.00;;;;;;5109994;28;20949;-57
2022/05/04 01:48:16;;;;;;;13.13;10.13;;;12.00;1.00;;;;;;5099372;28;20505;-57
2022/05/04 01:50:41;;;;;;;11.43;9.40;;;11.90;1.00;;;;;;5091620;28;20647;-56
2022/05/04 01:53:07;;;;;;;10.40;9.40;;;12.00;1.00;;;;;;5107541;28;20182;-57
2022/05/04 01:55:33;;;;;;;10.50;9.40;;;12.00;1.00;;;;;;5098700;28;20186;-57
2022/05/04 01:57:59;;;;;;;11.07;9.93;;;11.90;1.00;;;;;;5102455;28;20228;-57
2022/05/04 02:00:25;;;;;;;11.40;10.30;;;12.00;1.00;;;;;;5100182;28;20502;-58
2022/05/04 02:02:51;;;;;;;12.30;11.10;;;12.00;1.00;;;;;;5109272;28;20471;-57
2022/05/04 02:05:17;;;;;;;12.07;10.87;;;11.90;1.00;;;;;;5103349;28;20186;-57
2022/05/04 02:07:43;;;;;;;12.20;10.93;;;11.90;1.00;;;;;;5097724;28;20468;-57
2022/05/04 02:10:10;;;;;;;11.67;10.23;;;11.90;1.00;;;;;;5099203;28;20435;-57
2022/05/04 02:12:36;;;;;;;11.67;10.37;;;11.80;1.00;;;;;;5106083;28;20535;-58
2022/05/04 02:15:04;;;;;;;11.47;10.37;;;11.70;1.00;;;;;;5105715;28;20496;-57
2022/05/04 02:17:29;;;;;;;10.00;9.10;;;11.70;1.00;;;;;;5088588;28;20190;-57
2022/05/04 02:19:55;;;;;;;11.57;10.37;;;11.60;1.00;;;;;;5104898;28;20452;-57
2022/05/04 02:22:20;;;;;;;11.37;10.20;;;11.70;1.00;;;;;;5092481;28;20205;-57
2022/05/04 02:24:46;;;;;;;9.87;8.93;;;11.70;1.00;;;;;;5108910;28;20186;-56
2022/05/04 02:27:11;;;;;;;11.63;10.53;;;11.70;1.00;;;;;;5099872;28;20235;-57
2022/05/04 02:29:37;;;;;;;13.13;11.80;;;11.70;1.00;;;;;;5107612;28;20293;-57
2022/05/04 02:32:02;;;;;;;13.83;11.10;;;11.60;1.00;;;;;;5109421;28;20216;-57
2022/05/04 02:34:28;;;;;;;12.73;11.20;;;11.60;1.00;;;;;;5098859;28;20213;-57
2022/05/04 02:39:38;;;;;;;12.07;10.73;;;11.60;1.00;;;;;;5101284;28;20260;-56
2022/05/04 02:42:04;;;;;;;12.50;11.30;;;11.60;1.00;;;;;;5104238;28;20455;-57
2022/05/04 02:44:29;;;;;;;12.53;11.30;;;;;;;;;;5108946;28;20219;-57
2022/05/04 02:46:55;;;;;;;12.53;11.33;;;;;;;;;;5095013;28;20455;-58
2022/05/04 02:49:22;;;;;;;12.80;11.27;;;11.60;1.00;;;;;;5097794;28;20474;-56
2022/05/04 02:51:48;;;;;;;12.97;11.23;;;11.50;1.00;;;;;;5106330;28;20516;-58
2022/05/04 02:54:13;;;;;;;11.93;10.83;;;11.40;1.00;;;;;;5106833;28;20447;-56
2022/05/04 02:56:39;;;;;;;13.30;11.53;;;11.40;1.00;;;;;;5103347;28;20208;-57
2022/05/04 02:59:05;;;;;;;13.40;11.53;;;11.40;1.00;;;;;;5106278;28;20194;-57
2022/05/04 03:04:15;;;;;;;13.30;12.00;;;11.30;1.00;;;;;;5098859;28;20201;-57
2022/05/04 03:06:41;;;;;;;14.50;12.70;;;11.30;1.00;;;;;;5098140;28;20787;-57
2022/05/04 03:09:09;;;;;;;12.57;11.40;;;11.30;1.00;;;;;;5096240;28;20181;-57
2022/05/04 03:14:20;;;;;;;16.93;13.57;;;11.30;1.00;;;;;;5105292;28;20482;-58
2022/05/04 03:16:49;;;;;;;13.90;12.40;;;11.30;1.00;;;;;;5095109;28;20459;-58
2022/05/04 03:19:15;;;;;;;15.20;11.83;;;11.20;1.00;;;;;;5104682;28;20447;-57
2022/05/04 03:21:41;;;;;;;14.83;11.60;;;11.20;1.00;;;;;;5105997;28;20467;-56
2022/05/04 03:24:08;;;;;;;14.17;11.70;;;11.10;1.00;;;;;;5098779;28;20221;-57
2022/05/04 03:26:33;;;;;;;12.70;11.40;;;11.00;1.00;;;;;;5107998;28;20175;-57
2022/05/04 03:28:59;;;;;;;11.93;10.80;;;11.00;1.00;;;;;;5108791;28;20455;-58
2022/05/04 03:31:24;;;;;;;13.10;11.40;;;11.00;1.00;;;;;;5104179;28;20574;-58
2022/05/04 03:33:50;;;;;;;11.97;10.87;;;11.00;1.00;;;;;;5111105;28;20194;-56
2022/05/04 03:36:16;;;;;;;12.10;10.90;;;11.00;1.00;;;;;;5110888;28;20620;-57
2022/05/04 03:38:44;;;;;;;13.13;10.60;;;11.00;1.00;;;;;;5108451;28;20563;-56
2022/05/04 03:41:09;;;;;;;12.77;11.40;;;11.10;1.00;;;;;;5106977;28;20715;-57
2022/05/04 03:43:35;;;;;;;11.80;10.60;;;11.10;1.00;;;;;;5102103;28;20477;-57
2022/05/04 03:46:13;;;;;;;12.60;11.30;;;11.10;1.00;;;;;;5108732;28;20183;-58
2022/05/04 03:48:38;;;;;;;13.40;11.13;;;11.10;1.00;;;;;;5097230;28;20644;-59
2022/05/04 03:51:04;;;;;;;13.63;12.23;;;11.10;1.00;;;;;;5099609;28;20487;-58
2022/05/04 03:53:30;;;;;;;13.30;11.90;;;11.10;1.00;;;;;;5104379;28;20209;-58
2022/05/04 03:55:56;;;;;;;12.87;11.40;;;11.10;1.00;;;;;;5111709;28;20447;-59
2022/05/04 03:58:23;;;;;;;13.17;11.67;;;11.00;1.00;;;;;;5108965;28;20192;-58
2022/05/04 04:00:48;;;;;;;11.90;10.53;;;10.90;1.00;;;;;;5096306;28;20281;-57
2022/05/04 04:03:14;;;;;;;11.97;10.63;;;11.00;1.00;;;;;;5100672;28;20530;-57
2022/05/04 04:05:39;;;;;;;12.83;11.53;;;11.00;1.00;;;;;;5099272;28;20235;-58
2022/05/04 04:08:05;;;;;;;12.23;11.00;;;11.20;1.00;;;;;;5103890;28;20182;-58
2022/05/04 04:10:31;;;;;;;15.20;11.20;;;11.20;1.00;;;;;;5108039;28;20186;-57
2022/05/04 04:12:56;;;;;;;15.50;10.77;;;11.30;1.00;;;;;;5097867;28;20190;-56
2022/05/04 04:15:22;;;;;;;13.27;10.70;;;11.20;1.00;;;;;;5097242;28;20202;-56
2022/05/04 04:17:47;;;;;;;11.53;10.43;;;11.30;1.00;;;;;;5102252;28;20197;-56
2022/05/04 04:22:57;;;;;;;14.80;10.90;;;11.20;1.00;;;;;;5111943;28;20826;-56
2022/05/04 04:25:23;;;;;;;12.27;10.83;;;11.30;1.00;;;;;;5109877;28;20443;-57
2022/05/04 04:27:49;;;;;;;12.47;10.53;;;11.30;1.00;;;;;;5100625;28;20191;-56
2022/05/04 04:30:14;;;;;;;12.50;11.20;;;11.30;1.00;;;;;;5096220;28;20183;-57
2022/05/04 04:32:40;;;;;;;13.13;11.90;;;11.40;1.00;;;;;;5109105;28;20246;-57
2022/05/04 04:35:06;;;;;;;11.97;10.83;;;11.30;1.00;;;;;;5102838;28;20201;-58
2022/05/04 04:37:31;;;;;;;13.67;12.37;;;11.60;1.00;;;;;;5075317;28;20824;-58
2022/05/04 04:39:57;;;;;;;12.30;11.03;;;11.70;1.00;;;;;;5103888;28;20606;-58
2022/05/04 04:42:22;;;;;;;16.17;12.00;;;11.70;1.00;;;;;;5097578;28;20202;-60
2022/05/04 04:44:48;;;;;;;12.00;10.87;;;11.70;1.00;;;;;;5106374;28;20237;-61
2022/05/04 04:47:14;;;;;;;12.77;11.30;;;11.70;1.00;;;;;;5109863;28;20508;-60
2022/05/04 04:49:39;;;;;;;13.60;12.20;;;11.80;1.00;;;;;;5107699;28;20185;-60
2022/05/04 04:52:05;;;;;;;12.00;10.90;;;11.80;1.00;;;;;;5108353;28;20197;-60
2022/05/04 04:54:30;;;;;;;13.67;12.17;;;11.90;1.00;;;;;;5108818;28;20198;-60
2022/05/04 04:56:56;;;;;;;12.53;11.23;;;;;;;;;;5100990;28;20662;-60
2022/05/04 04:59:22;;;;;;;13.00;11.70;;;12.00;1.00;;;;;;5094295;28;20232;-60
2022/05/04 05:01:47;;;;;;;13.87;12.23;;;12.10;1.00;;;;;;5105641;28;20471;-60
2022/05/04 05:04:13;;;;;;;12.83;11.53;;;12.30;1.00;;;;;;5099097;28;20197;-61
2022/05/04 05:06:38;;;;;;;13.50;12.00;;;12.30;1.00;;;;;;5105075;28;20178;-59
2022/05/04 05:09:04;;;;;;;12.90;11.70;;;12.40;1.00;;;;;;5098023;28;20272;-60
2022/05/04 05:11:29;;;;;;;16.10;12.47;;;12.40;1.00;;;;;;5099005;28;20205;-59
2022/05/04 05:16:40;;;;;;;12.43;11.20;;;;;;;;;;5092889;28;20540;-61
2022/05/04 05:19:05;;;;;;;12.50;11.33;;;12.40;1.00;;;;;;5105248;28;20436;-61
2022/05/04 05:21:31;;;;;;;12.17;10.93;;;12.60;1.00;;;;;;5106324;28;20469;-60
2022/05/04 05:23:56;;;;;;;14.67;11.97;;;12.60;1.00;;;;;;5108293;28;20184;-60
2022/05/04 05:26:22;;;;;;;13.13;11.83;;;8.90;1.00;;;;;;5106401;28;20655;-60
2022/05/04 05:28:47;;;;;;;15.40;12.50;;;12.70;1.00;;;;;;5109922;28;20198;-61
2022/05/04 05:31:16;;;;;;;14.63;13.00;;;12.90;1.00;;;;;;5097725;28;20190;-61
2022/05/04 05:33:45;;;;;;;13.00;11.70;;;13.00;1.00;;;;;;5098006;28;20229;-61
2022/05/04 05:36:10;;;;;;;15.00;11.23;;;13.00;1.00;;;;;;5097757;28;20464;-59
2022/05/04 05:38:36;;;;;;;13.20;11.47;;;13.20;1.00;;;;;;5092667;28;20440;-59
2022/05/04 05:41:04;;;;;;;18.70;12.47;;;13.20;1.00;;;;;;5096041;28;20202;-61
2022/05/04 05:43:30;;;;;;;16.83;11.70;;;13.30;1.00;;;;;;5106465;28;20739;-60
2022/05/04 05:45:55;;;;;;;14.17;11.53;;;13.30;1.00;;;;;;5091114;28;20531;-59
2022/05/04 05:48:21;;;;;;;14.33;11.83;;;13.40;1.00;;;;;;5095211;28;20216;-58
2022/05/04 05:50:47;;;;;;;11.93;10.83;;;13.50;1.00;;;;;;5108157;28;20239;-61
2022/05/04 05:53:17;;;;;;;15.73;11.80;;;13.60;1.00;;;;;;5105584;28;20239;-58
2022/05/04 05:55:43;;;;;;;11.80;10.57;;;13.70;1.00;;;;;;5097927;28;20451;-60
2022/05/04 05:58:10;;;;;;;16.43;11.87;;;13.70;1.00;;;;;;5091030;28;20441;-59
2022/05/04 06:00:35;;;;;;;15.47;11.63;;;14.00;1.00;;;;;;5106266;28;20208;-59
2022/05/04 06:03:01;;;;;;;13.90;11.70;;;14.00;1.00;;;;;;5101002;28;20968;-59
2022/05/04 06:05:27;;;;;;;14.13;12.73;;;14.20;1.00;;;;;;5107884;28;20943;-59
2022/05/04 06:07:53;;;;;;;13.63;11.60;;;14.30;1.00;;;;;;5098116;28;20195;-60
2022/05/04 06:10:18;;;;;;;14.20;12.20;;;14.30;1.00;;;;;;5094926;28;20525;-58
2022/05/04 06:12:44;;;;;;;44.47;18.40;;;14.50;1.00;;;;;;5102541;28;20217;-59
2022/05/04 06:15:10;;;;;;;22.27;11.10;;;14.50;1.00;;;;;;5096498;28;20182;-60
2022/05/04 06:17:36;;;;;;;14.63;12.30;;;14.80;1.00;;;;;;5094931;28;20190;-59
2022/05/04 06:20:05;;;;;;;12.80;10.90;;;15.00;1.00;;;;;;5108160;28;20439;-61
2022/05/04 06:22:31;;;;;;;12.93;11.60;;;15.00;1.00;;;;;;5096268;28;20457;-60
2022/05/04 06:24:56;;;;;;;14.63;11.40;;;15.10;1.00;;;;;;5098171;28;20428;-59
2022/05/04 06:27:22;;;;;;;16.83;12.63;;;15.20;1.00;;;;;;5110482;28;20190;-59
2022/05/04 06:35:16;;;;;;;13.53;12.23;;;15.20;1.00;;;;;;5090620;28;20770;-60
2022/05/04 06:37:42;;;;;;;21.90;12.07;;;15.20;1.00;;;;;;5090054;28;20449;-61
2022/05/04 06:40:08;;;;;;;12.93;11.20;;;15.40;1.00;;;;;;5092304;28;20194;-59
2022/05/04 06:42:34;;;;;;;12.53;11.30;;;15.40;1.00;;;;;;5110413;28;20225;-59
2022/05/04 06:45:00;;;;;;;12.63;11.33;;;15.40;1.00;;;;;;5110131;28;20463;-62
2022/05/04 06:47:26;;;;;;;18.30;11.70;;;15.50;1.00;;;;;;5110376;28;20436;-60
2022/05/04 06:49:51;;;;;;;13.10;11.80;;;15.60;1.00;;;;;;5110107;28;21275;-59
2022/05/04 06:52:17;;;;;;;16.73;11.90;;;15.80;1.00;;;;;;5091470;28;20312;-59
2022/05/04 06:54:42;;;;;;;11.90;10.80;;;16.00;1.00;;;;;;5089701;28;20260;-60
2022/05/04 06:57:08;;;;;;;12.90;11.60;;;16.30;1.00;;;;;;5090145;28;20181;-59
2022/05/04 06:59:34;;;;;;;13.77;11.60;;;16.70;1.00;;;;;;5089901;28;20191;-60
2022/05/04 07:01:59;;;;;;;12.03;10.90;;;17.10;1.00;;;;;;5089415;28;20303;-57
2022/05/04 07:04:25;;;;;;;14.67;10.97;;;17.40;1.00;;;;;;5089768;28;20175;-56
2022/05/04 07:06:51;;;;;;;13.00;11.20;;;17.60;1.00;;;;;;5089515;28;20186;-58
2022/05/04 07:09:16;;;;;;;12.47;11.07;;;17.60;1.00;;;;;;5091954;28;20186;-57
2022/05/04 07:11:42;;;;;;;11.40;10.20;;;17.40;1.00;;;;;;5090957;28;20183;-58
2022/05/04 07:14:09;;;;;;;11.93;10.50;;;17.30;1.00;;;;;;5092444;28;20217;-57
2022/05/04 07:16:36;;;;;;;11.03;9.80;;;17.20;1.00;;;;;;5093214;28;20436;-58
2022/05/04 07:19:02;;;;;;;12.87;11.50;;;17.40;1.00;;;;;;5093173;28;20448;-58
2022/05/04 07:21:27;;;;;;;13.27;11.40;;;17.50;1.00;;;;;;5093229;28;20467;-57
2022/05/04 07:23:53;;;;;;;11.47;10.40;;;17.80;1.00;;;;;;5093257;28;20229;-56
2022/05/04 07:26:18;;;;;;;12.40;9.80;;;18.20;1.00;;;;;;5093482;28;20182;-57
2022/05/04 07:28:44;;;;;;;11.97;10.70;;;18.10;1.00;;;;;;5093064;28;20201;-57
2022/05/04 07:31:09;;;;;;;10.87;9.83;;;17.90;1.00;;;;;;5093149;28;20214;-58
2022/05/04 07:33:35;;;;;;;14.73;10.30;;;17.70;1.00;;;;;;5093253;28;20217;-57
2022/05/04 07:36:04;;;;;;;11.07;9.93;;;;;;;;;;5099462;28;20551;-58
2022/05/04 07:38:30;;;;;;;12.10;10.90;;;17.60;1.00;;;;;;5112194;28;20536;-57
2022/05/04 07:43:39;;;;;;;11.60;10.50;;;18.00;1.00;;;;;;5113460;28;20217;-57
2022/05/04 07:46:06;;;;;;;11.57;9.57;;;;;;;;;;5113148;28;20432;-58
2022/05/04 07:48:31;;;;;;;13.17;10.53;;;18.60;1.00;;;;;;5113565;28;20170;-57
2022/05/04 07:50:57;;;;;;;10.17;9.27;;;18.90;1.00;;;;;;5103655;28;20490;-57
2022/05/04 07:53:22;;;;;;;9.93;9.00;;;19.20;1.00;;;;;;5107339;28;20176;-57
2022/05/04 07:55:48;;;;;;;8.27;7.50;;;19.40;1.00;;;;;;5112976;28;20501;-57
2022/05/04 07:58:13;;;;;;;8.50;7.60;;;19.40;1.00;;;;;;5112780;28;20189;-61
2022/05/04 08:06:07;;;;;;;9.17;8.37;;;19.50;1.00;;;;;;5097359;28;20936;-56
2022/05/04 08:08:32;;;;;;;9.80;8.80;;;19.60;1.00;;;;;;5113206;28;20440;-58
2022/05/04 08:10:58;;;;;;;9.80;8.70;;;19.80;1.00;;;;;;5112968;28;20182;-58
2022/05/04 08:13:24;;;;;;;11.10;8.83;;;19.90;1.00;;;;;;5112725;28;20174;-58
2022/05/04 08:15:49;;;;;;;11.83;8.47;;;19.90;1.00;;;;;;5100412;28;20263;-59
2022/05/04 08:18:16;;;;;;;8.60;7.83;;;19.40;1.00;;;;;;5103645;28;20186;-56
2022/05/04 08:20:42;;;;;;;10.93;9.07;;;19.40;1.00;;;;;;5092388;28;20182;-57
2022/05/04 08:23:09;;;;;;;8.93;8.10;;;19.40;1.00;;;;;;5092416;28;20498;-57
2022/05/04 08:25:35;;;;;;;8.90;8.00;;;19.70;1.00;;;;;;5091276;28;20473;-58
2022/05/04 08:28:00;;;;;;;15.70;8.87;;;19.70;1.00;;;;;;5092136;28;20428;-57
2022/05/04 08:30:26;;;;;;;8.07;7.30;;;20.20;1.00;;;;;;5091950;28;20294;-57
2022/05/04 08:32:52;;;;;;;11.77;9.00;;;20.70;1.00;;;;;;5098082;28;20512;-57
2022/05/04 08:35:17;;;;;;;9.37;7.30;;;20.70;1.00;;;;;;5112460;28;20213;-57
2022/05/04 08:37:44;;;;;;;8.07;7.27;;;20.70;1.00;;;;;;5112447;28;20186;-57
2022/05/04 08:40:10;;;;;;;8.30;7.50;;;21.00;1.00;;;;;;5112477;28;20431;-58
2022/05/04 08:42:43;;;;;;;8.33;7.00;;;21.30;1.00;;;;;;5111913;28;20460;-57
2022/05/04 08:45:14;;;;;;;7.73;6.70;;;21.60;1.00;;;;;;5106248;28;20508;-58
2022/05/04 08:47:41;;;;;;;8.43;7.50;;;21.70;1.00;;;;;;5109698;28;20439;-58
2022/05/04 08:50:10;;;;;;;6.53;6.00;;;21.70;1.00;;;;;;5091865;28;20437;-58
2022/05/04 08:52:38;;;;;;;8.83;7.00;;;21.80;1.00;;;;;;5091552;28;21029;-57
2022/05/04 08:55:05;;;;;;;7.50;6.80;;;21.90;1.00;;;;;;5073794;28;20408;-57
2022/05/04 08:57:31;;;;;;;7.97;7.00;;;21.90;1.00;;;;;;5091486;28;20441;-57
2022/05/04 08:59:57;;;;;;;7.10;6.13;;;22.20;1.00;;;;;;5110561;28;20442;-58
2022/05/04 09:02:22;;;;;;;7.80;6.57;;;22.30;1.00;;;;;;5111587;28;20796;-58
2022/05/04 09:04:48;;;;;;;6.30;5.60;;;22.50;1.00;;;;;;5099171;28;20190;-58
2022/05/04 09:07:21;;;;;;;7.43;6.20;;;22.50;1.00;;;;;;5091440;28;20190;-57
2022/05/04 09:09:47;;;;;;;8.73;5.70;;;22.40;1.00;;;;;;5098000;28;20187;-58
2022/05/04 09:12:15;;;;;;;7.13;6.43;;;22.80;1.00;;;;;;5100668;28;20434;-57
2022/05/04 09:14:42;;;;;;;6.70;5.83;;;22.80;1.00;;;;;;5106179;28;20187;-57
2022/05/04 09:17:14;;;;;;;6.60;5.93;;;22.60;1.00;;;;;;5091303;28;20922;-58
2022/05/04 09:20:45;;;;;;;5.73;4.70;;;22.50;1.00;;;;;;5098217;28;20441;-58
2022/05/04 09:22:27;;;;;;;6.30;5.60;;;22.50;1.00;;;;;;5111443;28;20455;-58
2022/05/04 09:24:56;;;;;;;9.67;5.60;;;22.60;1.00;;;;;;5102355;28;20502;-57
2022/05/04 09:27:29;;;;;;;6.87;5.30;;;22.50;1.00;;;;;;5091161;28;20183;-57
2022/05/04 09:29:59;;;;;;;5.90;5.17;;;22.50;1.00;;;;;;5090800;28;20429;-57
2022/05/04 09:32:30;;;;;;;5.40;4.90;;;22.80;1.00;;;;;;5091058;28;21039;-58
2022/05/04 09:34:55;;;;;;;5.63;5.20;;;22.80;1.00;;;;;;5090719;28;20452;-57
2022/05/04 09:45:38;;;;;;;9.50;5.50;;;23.20;1.00;;;;;;5110517;28;20438;-59
2022/05/04 09:48:05;;;;;;;5.00;4.60;;;23.10;1.00;;;;;;5092577;28;20450;-58
2022/05/04 09:50:39;;;;;;;5.60;5.10;;;23.30;1.00;;;;;;5110989;28;20773;-58
2022/05/04 09:53:05;;;;;;;5.60;5.00;;;23.30;1.00;;;;;;5109325;28;20990;-58
2022/05/04 09:55:30;;;;;;;5.90;5.40;;;23.30;1.00;;;;;;5090910;28;20419;-58
2022/05/04 09:57:56;;;;;;;7.83;6.17;;;23.30;1.00;;;;;;5072391;28;20450;-58
2022/05/04 10:00:24;;;;;;;5.50;5.00;;;23.40;1.00;;;;;;5090301;28;20189;-58
2022/05/04 10:02:52;;;;;;;5.90;5.40;;;23.20;1.00;;;;;;5096441;28;20563;-58
2022/05/04 10:05:19;;;;;;;6.47;5.83;;;23.20;1.00;;;;;;5102603;28;20449;-58
2022/05/04 10:07:47;;;;;;;7.23;5.87;;;23.30;1.00;;;;;;5100626;28;21547;-57
2022/05/04 10:10:18;;;;;;;7.63;6.30;;;23.50;1.00;;;;;;5098218;28;20964;-58
2022/05/04 10:12:44;;;;;;;7.67;5.47;;;23.90;1.00;;;;;;5094697;28;20620;-56
2022/05/04 10:15:11;;;;;;;5.90;5.50;;;24.10;1.00;;;;;;5101848;28;20474;-57
2022/05/04 10:17:57;;;;;;;6.40;5.90;;;24.30;1.00;;;;;;5109474;28;20562;-57
2022/05/04 10:20:30;;;;;;;6.93;5.80;;;24.00;1.00;;;;;;5093897;28;20451;-56
2022/05/04 10:23:12;;;;;;;6.50;5.90;;;24.00;1.00;;;;;;5090152;28;20829;-58
2022/05/04 10:25:38;;;;;;;8.87;5.13;;;23.70;1.00;;;;;;5107536;28;20443;-57
2022/05/04 10:28:10;;;;;;;12.97;6.50;;;23.60;1.00;;;;;;5110260;28;20434;-57
2022/05/04 10:30:44;;;;;;;8.00;5.50;;;24.00;1.00;;;;;;5093554;28;20494;-57
2022/05/04 10:33:10;;;;;;;6.17;5.67;;;24.50;1.00;;;;;;5094890;28;20447;-57
2022/05/04 10:35:41;;;;;;;8.37;7.67;;;24.50;1.00;;;;;;5099864;28;20534;-57
2022/05/04 10:38:15;;;;;;;6.80;6.20;;;24.00;1.00;;;;;;5103239;28;20264;-56
2022/05/04 10:40:54;;;;;;;6.17;5.60;;;23.70;1.00;;;;;;5094779;28;20766;-57
2022/05/04 10:43:40;;;;;;;7.10;5.43;;;23.80;1.00;;;;;;5094047;28;20456;-57
2022/05/04 10:46:12;;;;;;;6.17;5.60;;;23.90;1.00;;;;;;5105901;28;20447;-57
2022/05/04 10:48:50;;;;;;;6.13;5.53;;;24.10;1.00;;;;;;5112027;28;20455;-57
2022/05/04 10:51:18;;;;;;;6.00;5.50;;;24.60;1.00;;;;;;5094730;28;20467;-56
2022/05/04 10:53:46;;;;;;;7.13;6.00;;;25.40;1.00;;;;;;5093873;28;20451;-58
2022/05/04 10:56:14;;;;;;;7.07;6.37;;;25.30;1.00;;;;;;5111977;28;20430;-58
2022/05/04 10:58:59;;;;;;;7.80;5.67;;;25.30;1.00;;;;;;5104439;28;20800;-58
2022/05/04 11:01:37;;;;;;;6.00;5.50;;;25.50;1.00;;;;;;5114037;28;20797;-59
2022/05/04 11:04:11;;;;;;;6.50;5.23;;;25.70;1.00;;;;;;5101705;28;20443;-58
2022/05/04 11:06:45;;;;;;;5.70;5.30;;;25.40;1.00;;;;;;5095116;28;20428;-58
2022/05/04 11:09:14;;;;;;;6.00;5.60;;;25.20;1.00;;;;;;5092028;28;20435;-58
2022/05/04 11:11:42;;;;;;;6.20;5.70;;;25.20;1.00;;;;;;5109806;28;20462;-58
2022/05/04 11:14:10;;;;;;;6.97;6.13;;;25.30;1.00;;;;;;5094766;28;20437;-57
2022/05/04 11:16:36;;;;;;;5.70;5.07;;;25.90;1.00;;;;;;5093454;28;20944;-57
2022/05/04 11:19:03;;;;;;;5.20;4.80;;;25.90;1.00;;;;;;5101936;28;20439;-56
2022/05/04 11:21:30;;;;;;;5.43;4.80;;;25.60;1.00;;;;;;5113566;28;20502;-58
2022/05/04 11:23:58;;;;;;;5.97;4.83;;;25.70;1.00;;;;;;5106337;28;20525;-56
2022/05/04 11:26:38;;;;;;;5.20;4.70;;;25.20;1.00;;;;;;5112260;27;20411;-56
2022/05/04 11:29:17;;;;;;;6.40;5.83;;;24.20;1.00;;;;;;5107810;28;21122;-56
2022/05/04 11:31:45;;;;;;;5.87;5.37;;;24.20;1.00;;;;;;5097606;28;20479;-57
2022/05/04 11:34:17;;;;;;;6.30;5.30;;;23.80;1.00;;;;;;5103657;28;20530;-57
2022/05/04 11:36:45;;;;;;;5.00;4.60;;;23.60;1.00;;;;;;5110676;28;20480;-55
2022/05/04 11:39:13;;;;;;;5.47;4.97;;;23.20;1.00;;;;;;5112327;28;20960;-56
2022/05/04 11:41:39;;;;;;;5.43;5.03;;;23.20;1.00;;;;;;5090935;28;20866;-57
2022/05/04 11:44:05;;;;;;;5.10;4.70;;;23.10;1.00;;;;;;5104144;28;20458;-57
2022/05/04 11:46:31;;;;;;;7.67;4.90;;;23.10;1.00;;;;;;5095855;28;20224;-58
2022/05/04 11:48:58;;;;;;;6.30;5.70;;;23.10;1.00;;;;;;5112833;28;20437;-57
2022/05/04 11:51:24;;;;;;;7.60;5.10;;;23.10;1.00;;;;;;5097410;28;20183;-56
2022/05/04 11:53:49;;;;;;;5.37;4.97;;;22.90;1.00;;;;;;5095133;28;20447;-56
2022/05/04 11:56:15;;;;;;;6.27;5.40;;;22.70;1.00;;;;;;5101272;28;20235;-56
2022/05/04 11:58:42;;;;;;;6.00;5.50;;;22.70;1.00;;;;;;5074434;28;20186;-56
2022/05/04 12:01:08;;;;;;;6.30;5.00;;;22.70;1.00;;;;;;5094310;28;20189;-56
2022/05/04 12:03:37;;;;;;;7.90;5.47;;;23.20;1.00;;;;;;5101061;28;20452;-56
2022/05/04 12:06:09;;;;;;;6.57;5.10;;;23.20;1.00;;;;;;5109106;28;20470;-56
2022/05/04 12:08:36;;;;;;;6.07;5.57;;;23.20;1.00;;;;;;5094136;28;20487;-57
2022/05/04 12:11:07;;;;;;;6.70;6.20;;;23.30;1.00;;;;;;5092502;28;20536;-57
2022/05/04 12:13:38;;;;;;;5.60;5.20;;;23.10;1.00;;;;;;5107828;28;20937;-57
2022/05/04 12:16:05;;;;;;;5.63;5.03;;;23.10;1.00;;;;;;5096994;28;20529;-55
2022/05/04 12:18:33;;;;;;;6.43;5.77;;;23.20;1.00;;;;;;5111143;28;20467;-57
2022/05/04 12:21:08;;;;;;;6.13;5.53;;;23.40;1.00;;;;;;5109658;28;20482;-57
2022/05/04 12:23:39;;;;;;;6.63;5.70;;;23.50;1.00;;;;;;5105186;28;20439;-57
2022/05/04 12:26:06;;;;;;;8.37;6.17;;;23.80;1.00;;;;;;5109243;28;20439;-57
2022/05/04 12:28:32;;;;;;;6.60;5.93;;;24.10;1.00;;;;;;5102519;28;20452;-56
2022/05/04 12:33:43;;;;;;;5.50;5.00;;;24.20;1.00;;;;;;5098414;28;20443;-56
2022/05/04 12:36:11;;;;;;;8.73;6.27;;;23.80;1.00;;;;;;5099675;28;20452;-57
2022/05/04 12:38:38;;;;;;;7.43;5.27;;;23.70;1.00;;;;;;5109931;28;20482;-57
2022/05/04 12:41:08;;;;;;;7.10;5.20;;;24.00;1.00;;;;;;5106211;28;20477;-57
2022/05/04 12:43:37;;;;;;;6.07;5.57;;;24.30;1.00;;;;;;5096284;28;20476;-57
2022/05/04 12:46:15;;;;;;;5.80;5.30;;;24.50;1.00;;;;;;5095779;28;20532;-57
2022/05/04 12:48:42;;;;;;;9.00;5.77;;;24.80;1.00;;;;;;5098991;28;20550;-58
2022/05/04 12:51:09;;;;;;;5.37;4.97;;;24.90;1.00;;;;;;5110714;28;20475;-55
2022/05/04 12:53:38;;;;;;;6.07;5.57;;;25.70;1.00;;;;;;5108562;28;20458;-57
2022/05/04 12:58:54;;;;;;;6.10;5.20;;;26.00;1.00;;;;;;5097869;28;20493;-56
2022/05/04 13:01:24;;;;;;;6.30;5.67;;;26.10;1.00;;;;;;5094969;28;20475;-57
2022/05/04 13:03:50;;;;;;;7.33;6.70;;;26.20;1.00;;;;;;5104093;28;20436;-57
2022/05/04 13:06:20;;;;;;;5.70;5.20;;;26.20;1.00;;;;;;5096810;28;20444;-55
2022/05/04 13:08:48;;;;;;;5.83;5.30;;;26.30;1.00;;;;;;5104003;28;20447;-58
2022/05/04 13:11:14;;;;;;;5.87;5.30;;;26.10;1.00;;;;;;5093895;28;20497;-56
2022/05/04 13:13:40;;;;;;;5.83;5.23;;;26.00;1.00;;;;;;5098371;28;20542;-57
2022/05/04 13:16:05;;;;;;;5.40;4.97;;;25.80;1.00;;;;;;5095590;28;21036;-55
2022/05/04 13:18:31;;;;;;;6.90;5.10;;;25.70;1.00;;;;;;5099496;28;20190;-57
2022/05/04 13:20:57;;;;;;;6.07;5.67;;;25.80;1.00;;;;;;5101009;28;20340;-57
2022/05/04 13:23:22;;;;;;;8.70;4.77;;;25.40;1.00;;;;;;5105559;28;20471;-56
2022/05/04 13:25:48;;;;;;;6.50;5.47;;;24.90;1.00;;;;;;5098217;28;20504;-57
2022/05/04 13:28:13;;;;;;;7.17;5.70;;;24.60;1.00;;;;;;5102130;28;20182;-56